createdAt,value
2018-09-22T00:00:33.903Z,100.00
2018-09-22T00:03:06.013Z,100.00
2018-09-22T00:05:38.078Z,100.00
2018-09-22T00:08:10.171Z,100.00
2018-09-22T00:10:42.310Z,100.00
2018-09-22T00:13:14.373Z,100.00
2018-09-22T00:15:46.424Z,100.00
2018-09-22T00:18:18.505Z,100.00
2018-09-22T00:20:50.544Z,100.00
2018-09-22T00:23:22.568Z,100.00
2018-09-22T00:25:54.616Z,100.00
2018-09-22T00:28:26.675Z,100.00
2018-09-22T00:30:58.788Z,100.00
2018-09-22T00:33:30.960Z,100.00
2018-09-22T00:36:03.040Z,100.00
2018-09-22T00:38:35.099Z,100.00
2018-09-22T00:41:07.155Z,100.00
2018-09-22T00:43:39.198Z,100.00
2018-09-22T00:46:11.299Z,100.00
2018-09-22T00:48:43.393Z,100.00
2018-09-22T00:51:15.440Z,100.00
2018-09-22T00:53:47.460Z,100.00
2018-09-22T00:56:19.539Z,100.00
2018-09-22T00:58:51.668Z,100.00
2018-09-22T01:01:23.800Z,100.00
2018-09-22T01:03:55.854Z,100.00
2018-09-22T01:06:27.906Z,100.00
2018-09-22T01:09:00.000Z,100.00
2018-09-22T01:11:32.036Z,100.00
2018-09-22T01:14:04.133Z,100.00
2018-09-22T01:16:36.513Z,100.00
2018-09-22T01:19:08.562Z,100.00
2018-09-22T01:21:40.625Z,100.00
2018-09-22T01:24:12.716Z,100.00
2018-09-22T01:26:44.847Z,100.00
2018-09-22T01:29:16.963Z,100.00
2018-09-22T01:31:49.035Z,100.00
2018-09-22T01:34:21.081Z,100.00
2018-09-22T01:36:53.225Z,100.00
2018-09-22T01:39:25.271Z,100.00
2018-09-22T01:41:57.346Z,100.00
2018-09-22T01:44:29.395Z,100.00
2018-09-22T01:47:01.444Z,100.00
2018-09-22T01:49:33.532Z,100.00
2018-09-22T01:52:05.618Z,100.00
2018-09-22T01:54:37.984Z,100.00
2018-09-22T01:57:10.011Z,100.00
2018-09-22T01:59:42.122Z,100.00
2018-09-22T02:02:14.146Z,100.00
2018-09-22T02:04:46.148Z,100.00
2018-09-22T02:07:18.188Z,100.00
2018-09-22T02:09:50.194Z,100.00
2018-09-22T02:12:22.269Z,100.00
2018-09-22T02:14:54.312Z,100.00
2018-09-22T02:17:26.348Z,100.00
2018-09-22T02:19:58.419Z,100.00
2018-09-22T02:22:30.556Z,100.00
2018-09-22T02:25:02.624Z,100.00
2018-09-22T02:27:34.668Z,100.00
2018-09-22T02:30:06.800Z,100.00
2018-09-22T02:32:38.836Z,100.00
2018-09-22T02:35:10.898Z,100.00
2018-09-22T02:37:42.976Z,100.00
2018-09-22T02:40:15.035Z,100.00
2018-09-22T02:42:47.111Z,100.00
2018-09-22T02:45:19.191Z,100.00
2018-09-22T02:47:51.237Z,100.00
2018-09-22T02:50:23.299Z,100.00
2018-09-22T02:52:55.364Z,100.00
2018-09-22T02:55:27.420Z,100.00
2018-09-22T02:57:59.498Z,100.00
2018-09-22T03:00:31.560Z,100.00
2018-09-22T03:03:03.602Z,100.00
2018-09-22T03:05:35.698Z,100.00
2018-09-22T03:08:07.764Z,100.00
2018-09-22T03:10:40.069Z,100.00
2018-09-22T03:13:12.118Z,100.00
2018-09-22T03:15:44.185Z,100.00
2018-09-22T03:18:16.239Z,100.00
2018-09-22T03:20:48.289Z,100.00
2018-09-22T03:23:20.702Z,100.00
2018-09-22T03:25:52.738Z,100.00
2018-09-22T03:28:24.837Z,100.00
2018-09-22T03:30:56.976Z,100.00
2018-09-22T03:33:28.992Z,100.00
2018-09-22T03:36:01.014Z,100.00
2018-09-22T03:38:33.078Z,100.00
2018-09-22T03:41:05.244Z,100.00
2018-09-22T03:43:37.284Z,100.00
2018-09-22T03:46:09.456Z,100.00
2018-09-22T03:48:41.524Z,100.00
2018-09-22T03:51:13.611Z,100.00
2018-09-22T03:53:45.654Z,100.00
2018-09-22T03:56:17.723Z,100.00
2018-09-22T03:58:49.751Z,100.00
2018-09-22T04:01:21.945Z,100.00
2018-09-22T04:03:54.057Z,100.00
2018-09-22T04:06:26.091Z,100.00
2018-09-22T04:08:58.143Z,100.00
2018-09-22T04:11:30.208Z,100.00
2018-09-22T04:14:02.271Z,100.00
2018-09-22T04:16:34.356Z,100.00
2018-09-22T04:19:06.468Z,100.00
2018-09-22T04:21:38.494Z,100.00
2018-09-22T04:24:15.144Z,100.00
2018-09-22T04:26:49.644Z,100.00
2018-09-22T04:29:21.668Z,100.00
2018-09-22T04:31:53.755Z,100.00
2018-09-22T04:34:25.834Z,100.00
2018-09-22T04:36:57.894Z,100.00
2018-09-22T04:39:29.912Z,100.00
2018-09-22T04:42:01.966Z,100.00
2018-09-22T04:44:33.996Z,100.00
2018-09-22T04:47:06.045Z,100.00
2018-09-22T04:49:38.111Z,100.00
2018-09-22T04:52:10.231Z,100.00
2018-09-22T04:54:42.281Z,100.00
2018-09-22T04:57:14.347Z,100.00
2018-09-22T04:59:46.429Z,100.00
2018-09-22T05:02:18.482Z,100.00
2018-09-22T05:04:50.541Z,100.00
2018-09-22T05:07:22.836Z,100.00
2018-09-22T05:09:54.879Z,100.00
2018-09-22T05:12:26.943Z,100.00
2018-09-22T05:14:59.064Z,100.00
2018-09-22T05:17:31.156Z,100.00
2018-09-22T05:20:03.254Z,100.00
2018-09-22T05:22:35.384Z,100.00
2018-09-22T05:25:07.525Z,100.00
2018-09-22T05:27:39.609Z,100.00
2018-09-22T05:30:11.684Z,100.00
2018-09-22T05:32:43.772Z,100.00
2018-09-22T05:35:15.813Z,100.00
2018-09-22T05:37:47.909Z,100.00
2018-09-22T05:40:19.987Z,100.00
2018-09-22T05:42:52.028Z,100.00
2018-09-22T05:45:24.108Z,100.00
2018-09-22T05:47:56.209Z,100.00
2018-09-22T05:50:28.265Z,100.00
2018-09-22T05:53:00.398Z,100.00
2018-09-22T05:55:32.481Z,100.00
2018-09-22T05:58:05.254Z,100.00
2018-09-22T06:00:38.739Z,100.00
2018-09-22T06:03:10.808Z,100.00
2018-09-22T06:05:42.855Z,100.00
2018-09-22T06:08:15.392Z,100.00
2018-09-22T06:10:47.521Z,100.00
2018-09-22T06:13:19.618Z,100.00
2018-09-22T06:15:51.656Z,100.00
2018-09-22T06:18:23.679Z,100.00
2018-09-22T06:20:55.740Z,100.00
2018-09-22T06:23:27.875Z,100.00
2018-09-22T06:25:59.891Z,100.00
2018-09-22T06:28:31.936Z,100.00
2018-09-22T06:31:04.074Z,100.00
2018-09-22T06:33:36.182Z,100.00
2018-09-22T06:36:08.314Z,100.00
2018-09-22T06:38:40.356Z,100.00
2018-09-22T06:41:12.425Z,100.00
2018-09-22T06:43:44.467Z,100.00
2018-09-22T06:46:16.638Z,100.00
2018-09-22T06:48:48.724Z,100.00
2018-09-22T06:51:20.853Z,100.00
2018-09-22T06:53:52.988Z,100.00
2018-09-22T06:56:25.102Z,100.00
2018-09-22T06:58:57.203Z,100.00
2018-09-22T07:01:29.338Z,100.00
2018-09-22T07:04:01.450Z,96.64
2018-09-22T07:06:33.518Z,94.99
2018-09-22T07:09:06.391Z,91.93
2018-09-22T07:11:38.508Z,89.02
2018-09-22T07:14:10.553Z,89.45
2018-09-22T07:16:42.584Z,86.49
2018-09-22T07:19:14.862Z,82.33
2018-09-22T07:21:53.637Z,80.31
2018-09-22T07:24:25.744Z,77.04
2018-09-22T07:26:57.834Z,76.33
2018-09-22T07:29:29.898Z,77.89
2018-09-22T07:32:01.960Z,76.45
2018-09-22T07:34:34.060Z,76.19
2018-09-22T07:37:06.847Z,76.29
2018-09-22T07:39:38.927Z,72.37
2018-09-22T07:42:11.020Z,75.90
2018-09-22T07:44:43.048Z,76.37
2018-09-22T07:47:15.149Z,76.96
2018-09-22T07:49:47.271Z,76.99
2018-09-22T07:52:19.470Z,76.81
2018-09-22T07:54:51.593Z,74.46
2018-09-22T07:57:23.723Z,74.40
2018-09-22T07:59:56.019Z,74.17
2018-09-22T08:02:28.056Z,75.58
2018-09-22T08:05:00.265Z,74.68
2018-09-22T08:07:32.451Z,74.73
2018-09-22T08:10:04.617Z,72.46
2018-09-22T08:12:36.751Z,72.43
2018-09-22T08:15:08.892Z,75.43
2018-09-22T08:17:41.094Z,74.09
2018-09-22T08:20:13.145Z,73.84
2018-09-22T08:22:45.167Z,71.80
2018-09-22T08:25:17.401Z,71.58
2018-09-22T08:27:49.432Z,73.66
2018-09-22T08:30:21.502Z,73.25
2018-09-22T08:32:53.616Z,72.14
2018-09-22T08:35:25.679Z,72.89
2018-09-22T08:37:59.592Z,72.27
2018-09-22T08:40:31.752Z,73.12
2018-09-22T08:43:03.885Z,71.44
2018-09-22T08:45:35.996Z,71.85
2018-09-22T08:48:08.079Z,69.88
2018-09-22T08:50:40.146Z,68.81
2018-09-22T08:53:12.201Z,69.47
2018-09-22T08:55:44.407Z,67.13
2018-09-22T08:58:16.524Z,64.68
2018-09-22T09:00:48.592Z,64.54
2018-09-22T09:03:20.648Z,64.90
2018-09-22T09:05:52.788Z,62.51
2018-09-22T09:08:24.953Z,62.37
2018-09-22T09:10:56.953Z,62.07
2018-09-22T09:13:29.027Z,61.82
2018-09-22T09:16:01.052Z,60.10
2018-09-22T09:18:33.148Z,60.34
2018-09-22T09:21:05.234Z,57.00
2018-09-22T09:23:37.243Z,57.30
2018-09-22T09:26:09.452Z,59.65
2018-09-22T09:28:45.547Z,58.64
2018-09-22T09:31:18.365Z,57.32
2018-09-22T09:33:50.456Z,58.81
2018-09-22T09:36:22.560Z,59.27
2018-09-22T09:38:57.081Z,58.50
2018-09-22T09:41:29.130Z,58.85
2018-09-22T09:44:01.177Z,59.00
2018-09-22T09:46:33.236Z,56.11
2018-09-22T09:49:05.287Z,56.68
2018-09-22T09:51:37.367Z,53.75
2018-09-22T09:54:09.445Z,53.91
2018-09-22T09:56:41.555Z,54.01
2018-09-22T09:59:13.603Z,51.55
2018-09-22T10:01:45.709Z,51.64
2018-09-22T10:04:17.806Z,50.49
2018-09-22T10:06:49.857Z,48.76
2018-09-22T10:09:22.736Z,49.54
2018-09-22T10:11:54.869Z,48.97
2018-09-22T10:14:26.886Z,48.14
2018-09-22T10:16:58.936Z,48.69
2018-09-22T10:19:31.057Z,47.20
2018-09-22T10:22:03.123Z,46.60
2018-09-22T10:24:35.187Z,45.13
2018-09-22T10:27:07.301Z,44.74
2018-09-22T10:29:39.364Z,47.62
2018-09-22T10:32:11.479Z,45.73
2018-09-22T10:34:43.555Z,45.63
2018-09-22T10:37:15.586Z,46.59
2018-09-22T10:39:47.666Z,46.90
2018-09-22T10:42:20.260Z,47.09
2018-09-22T10:44:52.271Z,45.62
2018-09-22T10:47:24.385Z,45.11
2018-09-22T10:49:56.487Z,44.49
2018-09-22T10:52:28.566Z,43.35
2018-09-22T10:55:00.648Z,44.73
2018-09-22T10:57:32.674Z,42.69
2018-09-22T11:00:04.813Z,42.59
2018-09-22T11:02:36.875Z,42.77
2018-09-22T11:05:08.932Z,42.27
2018-09-22T11:07:41.074Z,42.31
2018-09-22T11:10:13.133Z,40.07
2018-09-22T11:12:45.240Z,40.83
2018-09-22T11:15:17.287Z,40.29
2018-09-22T11:17:49.580Z,39.26
2018-09-22T11:20:21.842Z,39.50
2018-09-22T11:22:53.888Z,41.66
2018-09-22T11:25:25.989Z,43.20
2018-09-22T11:27:58.020Z,39.44
2018-09-22T11:30:30.103Z,39.72
2018-09-22T11:33:02.191Z,40.42
2018-09-22T11:35:34.322Z,38.94
2018-09-22T11:38:06.501Z,39.37
2018-09-22T11:40:38.539Z,38.29
2018-09-22T11:43:10.609Z,38.61
2018-09-22T11:45:42.661Z,38.45
2018-09-22T11:48:14.696Z,39.12
2018-09-22T11:50:46.727Z,39.72
2018-09-22T11:53:18.792Z,40.81
2018-09-22T11:55:50.859Z,37.45
2018-09-22T11:58:22.903Z,37.72
2018-09-22T12:00:55.056Z,36.88
2018-09-22T12:03:27.157Z,37.73
2018-09-22T12:05:59.230Z,36.67
2018-09-22T12:08:31.319Z,37.74
2018-09-22T12:11:03.351Z,38.34
2018-09-22T12:13:35.418Z,38.02
2018-09-22T12:16:07.469Z,39.92
2018-09-22T12:18:39.559Z,39.17
2018-09-22T12:21:11.600Z,40.84
2018-09-22T12:23:43.641Z,38.35
2018-09-22T12:26:15.724Z,39.10
2018-09-22T12:28:47.768Z,38.01
2018-09-22T12:31:19.832Z,37.65
2018-09-22T12:33:52.104Z,38.09
2018-09-22T12:36:24.171Z,37.79
2018-09-22T12:38:56.212Z,37.49
2018-09-22T12:41:28.256Z,37.19
2018-09-22T12:44:00.303Z,37.59
2018-09-22T12:46:32.487Z,38.37
2018-09-22T12:49:04.754Z,41.82
2018-09-22T12:51:36.839Z,42.06
2018-09-22T12:54:08.991Z,39.80
2018-09-22T12:56:41.100Z,39.07
2018-09-22T12:59:13.191Z,39.60
2018-09-22T13:01:45.240Z,39.15
2018-09-22T13:04:17.344Z,40.45
2018-09-22T13:06:49.427Z,39.31
2018-09-22T13:09:21.532Z,38.60
2018-09-22T13:11:53.591Z,38.36
2018-09-22T13:14:25.679Z,38.72
2018-09-22T13:16:57.732Z,36.73
2018-09-22T13:19:29.839Z,35.19
2018-09-22T13:22:01.906Z,35.96
2018-09-22T13:24:33.986Z,36.15
2018-09-22T13:27:06.131Z,35.12
2018-09-22T13:29:38.178Z,36.58
2018-09-22T13:32:10.217Z,38.56
2018-09-22T13:34:42.284Z,39.28
2018-09-22T13:37:14.412Z,38.09
2018-09-22T13:39:46.432Z,36.16
2018-09-22T13:42:18.497Z,36.93
2018-09-22T13:44:50.586Z,35.88
2018-09-22T13:47:22.650Z,37.18
2018-09-22T13:49:54.746Z,36.78
2018-09-22T13:52:26.864Z,35.32
2018-09-22T13:55:02.153Z,35.54
2018-09-22T13:57:34.217Z,34.21
2018-09-22T14:00:06.316Z,33.16
2018-09-22T14:02:38.407Z,33.66
2018-09-22T14:05:10.490Z,33.72
2018-09-22T14:07:42.532Z,33.91
2018-09-22T14:10:14.833Z,32.83
2018-09-22T14:12:46.763Z,34.84
2018-09-22T14:15:18.938Z,35.00
2018-09-22T14:17:51.002Z,34.35
2018-09-22T14:20:23.067Z,34.26
2018-09-22T14:22:55.107Z,32.45
2018-09-22T14:25:27.195Z,32.59
2018-09-22T14:27:59.341Z,31.17
2018-09-22T14:30:31.446Z,32.11
2018-09-22T14:33:03.531Z,30.69
2018-09-22T14:35:35.599Z,30.90
2018-09-22T14:38:07.708Z,33.74
2018-09-22T14:40:39.834Z,34.28
2018-09-22T14:43:11.884Z,34.65
2018-09-22T14:45:44.052Z,33.44
2018-09-22T14:48:16.172Z,34.78
2018-09-22T14:50:48.419Z,36.06
2018-09-22T14:53:20.569Z,34.48
2018-09-22T14:55:52.638Z,34.19
2018-09-22T14:58:24.679Z,35.29
2018-09-22T15:00:56.786Z,34.07
2018-09-22T15:03:28.919Z,33.38
2018-09-22T15:06:00.988Z,34.97
2018-09-22T15:08:33.157Z,34.63
2018-09-22T15:11:05.276Z,35.83
2018-09-22T15:13:37.444Z,35.68
2018-09-22T15:16:09.512Z,35.19
2018-09-22T15:18:41.609Z,36.32
2018-09-22T15:21:13.773Z,37.13
2018-09-22T15:23:45.831Z,35.30
2018-09-22T15:26:17.905Z,35.23
2018-09-22T15:28:50.715Z,36.29
2018-09-22T15:31:22.791Z,36.97
2018-09-22T15:33:54.830Z,38.13
2018-09-22T15:36:26.899Z,37.55
2018-09-22T15:38:58.951Z,37.29
2018-09-22T15:41:31.015Z,37.16
2018-09-22T15:44:03.350Z,37.57
2018-09-22T15:46:35.409Z,38.64
2018-09-22T15:49:07.476Z,38.67
2018-09-22T15:51:39.596Z,38.29
2018-09-22T15:54:11.631Z,38.61
2018-09-22T15:56:43.724Z,40.30
2018-09-22T15:59:15.799Z,39.79
2018-09-22T16:01:47.988Z,39.76
2018-09-22T16:04:20.078Z,41.06
2018-09-22T16:06:52.163Z,43.18
2018-09-22T16:09:24.232Z,42.78
2018-09-22T16:11:56.295Z,44.19
2018-09-22T16:14:28.376Z,43.34
2018-09-22T16:17:00.437Z,43.83
2018-09-22T16:19:32.478Z,44.55
2018-09-22T16:22:05.170Z,45.06
2018-09-22T16:24:37.212Z,44.48
2018-09-22T16:27:09.440Z,46.20
2018-09-22T16:29:41.547Z,45.15
2018-09-22T16:32:13.753Z,46.65
2018-09-22T16:34:45.904Z,45.41
2018-09-22T16:37:18.161Z,46.83
2018-09-22T16:39:50.265Z,46.54
2018-09-22T16:42:22.330Z,46.99
2018-09-22T16:44:55.212Z,47.66
2018-09-22T16:47:27.274Z,47.95
2018-09-22T16:49:59.377Z,48.75
2018-09-22T16:52:31.413Z,49.13
2018-09-22T16:55:03.523Z,50.04
2018-09-22T16:57:35.612Z,51.37
2018-09-22T17:00:07.682Z,52.30
2018-09-22T17:02:39.748Z,53.60
2018-09-22T17:05:11.800Z,53.35
2018-09-22T17:07:43.852Z,53.68
2018-09-22T17:10:16.020Z,53.73
2018-09-22T17:12:48.101Z,54.02
2018-09-22T17:15:20.176Z,54.22
2018-09-22T17:17:52.223Z,54.16
2018-09-22T17:20:24.327Z,53.59
2018-09-22T17:22:56.373Z,54.19
2018-09-22T17:25:28.440Z,55.43
2018-09-22T17:28:00.492Z,57.79
2018-09-22T17:30:32.594Z,57.64
2018-09-22T17:33:04.775Z,58.83
2018-09-22T17:35:36.841Z,57.06
2018-09-22T17:38:08.988Z,59.48
2018-09-22T17:40:41.157Z,61.24
2018-09-22T17:43:13.285Z,61.45
2018-09-22T17:45:45.307Z,60.48
2018-09-22T17:48:17.557Z,60.23
2018-09-22T17:50:49.604Z,60.60
2018-09-22T17:53:21.760Z,60.06
2018-09-22T17:55:53.815Z,60.44
2018-09-22T17:58:25.898Z,64.19
2018-09-22T18:00:57.951Z,62.47
2018-09-22T18:03:30.674Z,63.97
2018-09-22T18:06:02.929Z,63.87
2018-09-22T18:08:34.960Z,66.23
2018-09-22T18:11:07.393Z,64.89
2018-09-22T18:16:18.353Z,67.51
2018-09-22T18:18:50.546Z,70.16
2018-09-22T18:21:23.045Z,67.93
2018-09-22T18:23:55.250Z,67.09
2018-09-22T18:26:27.460Z,66.87
2018-09-22T18:28:59.595Z,68.09
2018-09-22T18:31:31.816Z,68.42
2018-09-22T18:34:04.036Z,70.16
2018-09-22T18:36:36.157Z,67.13
2018-09-22T18:39:08.755Z,67.10
2018-09-22T18:41:40.891Z,67.87
2018-09-22T18:44:13.112Z,67.36
2018-09-22T18:46:45.351Z,65.82
2018-09-22T18:49:17.570Z,67.16
2018-09-22T18:51:50.165Z,68.21
2018-09-22T18:54:22.599Z,69.80
2018-09-22T18:56:54.742Z,71.18
2018-09-22T18:59:26.877Z,72.47
2018-09-22T19:01:59.044Z,75.05
2018-09-22T19:04:31.246Z,72.65
2018-09-22T19:07:03.479Z,71.33
2018-09-22T19:09:35.631Z,75.22
2018-09-22T19:12:07.770Z,77.24
2018-09-22T19:14:45.982Z,76.36
2018-09-22T19:17:25.789Z,76.65
2018-09-22T19:20:17.142Z,78.28
2018-09-22T19:22:56.950Z,79.18
2018-09-22T19:25:31.873Z,79.21
2018-09-22T19:28:08.583Z,77.99
2018-09-22T19:30:57.880Z,75.20
2018-09-22T19:33:36.275Z,73.99
2018-09-22T19:36:18.710Z,71.85
2018-09-22T19:38:58.695Z,76.97
2018-09-22T19:42:06.343Z,83.12
2018-09-22T19:44:46.461Z,86.58
2018-09-22T19:47:22.854Z,98.01
2018-09-22T19:50:00.377Z,100.00
2018-09-22T19:52:37.899Z,100.00
2018-09-22T19:55:10.355Z,100.00
2018-09-22T19:57:42.662Z,100.00
2018-09-22T20:00:14.960Z,100.00
2018-09-22T20:02:47.164Z,100.00
2018-09-22T20:05:19.325Z,100.00
2018-09-22T20:07:51.471Z,100.00
2018-09-22T20:10:23.525Z,100.00
2018-09-22T20:12:55.629Z,100.00
2018-09-22T20:15:27.703Z,100.00
2018-09-22T20:17:59.830Z,100.00
2018-09-22T20:20:31.873Z,100.00
2018-09-22T20:23:04.272Z,100.00
2018-09-22T20:25:36.311Z,100.00
2018-09-22T20:28:08.427Z,100.00
2018-09-22T20:30:40.467Z,100.00
2018-09-22T20:33:12.557Z,100.00
2018-09-22T20:35:44.629Z,100.00
2018-09-22T20:38:17.027Z,100.00
2018-09-22T20:40:50.096Z,100.00
2018-09-22T20:43:22.142Z,100.00
2018-09-22T20:45:54.180Z,100.00
2018-09-22T20:48:26.237Z,100.00
2018-09-22T20:50:58.255Z,100.00
2018-09-22T20:53:30.323Z,100.00
2018-09-22T20:56:02.368Z,100.00
2018-09-22T20:58:34.429Z,100.00
2018-09-22T21:01:06.501Z,100.00
2018-09-22T21:03:38.646Z,100.00
2018-09-22T21:06:10.741Z,99.54
2018-09-22T21:08:42.801Z,98.75
2018-09-22T21:11:14.961Z,96.94
2018-09-22T21:13:48.122Z,97.20
2018-09-22T21:16:20.252Z,96.14
2018-09-22T21:18:52.375Z,94.04
2018-09-22T21:21:24.479Z,97.48
2018-09-22T21:23:56.544Z,94.28
2018-09-22T21:26:28.599Z,94.96
2018-09-22T21:29:00.665Z,97.75
2018-09-22T21:31:32.701Z,96.27
2018-09-22T21:34:04.764Z,98.90
2018-09-22T21:36:36.815Z,99.95
2018-09-22T21:39:09.609Z,100.00
2018-09-22T21:41:41.669Z,98.90
2018-09-22T21:44:13.754Z,99.15
2018-09-22T21:46:46.876Z,99.73
2018-09-22T21:49:19.017Z,98.23
2018-09-22T21:51:51.099Z,96.51
2018-09-22T21:54:23.285Z,95.54
2018-09-22T21:56:55.332Z,96.78
2018-09-22T21:59:27.404Z,97.87
2018-09-22T22:01:59.471Z,98.93
2018-09-22T22:04:31.518Z,98.84
2018-09-22T22:07:03.624Z,99.57
2018-09-22T22:09:35.676Z,98.09
2018-09-22T22:12:07.791Z,100.00
2018-09-22T22:14:39.933Z,99.04
2018-09-22T22:17:11.984Z,96.95
2018-09-22T22:19:44.086Z,98.50
2018-09-22T22:22:16.238Z,96.35
2018-09-22T22:24:48.314Z,96.07
2018-09-22T22:27:20.405Z,99.36
2018-09-22T22:29:52.445Z,98.21
2018-09-22T22:32:24.516Z,100.00
2018-09-22T22:34:56.595Z,100.00
2018-09-22T22:37:28.619Z,100.00
2018-09-22T22:40:00.684Z,100.00
2018-09-22T22:42:32.750Z,100.00
2018-09-22T22:45:05.123Z,100.00
2018-09-22T22:47:37.240Z,100.00
2018-09-22T22:50:09.318Z,100.00
2018-09-22T22:52:41.430Z,100.00
2018-09-22T22:55:13.655Z,100.00
2018-09-22T22:57:45.771Z,100.00
2018-09-22T23:00:24.517Z,100.00
2018-09-22T23:02:56.663Z,100.00
2018-09-22T23:05:30.457Z,100.00
2018-09-22T23:08:02.937Z,100.00
2018-09-22T23:10:35.036Z,99.41
2018-09-22T23:13:07.187Z,100.00
2018-09-22T23:15:39.255Z,100.00
2018-09-22T23:18:11.340Z,100.00
2018-09-22T23:20:43.399Z,100.00
2018-09-22T23:23:15.484Z,100.00
2018-09-22T23:25:48.276Z,100.00
2018-09-22T23:28:20.337Z,100.00
2018-09-22T23:30:53.431Z,100.00
2018-09-22T23:33:25.468Z,100.00
2018-09-22T23:35:57.510Z,100.00
2018-09-22T23:38:29.627Z,100.00
2018-09-22T23:41:01.724Z,100.00
2018-09-22T23:43:33.792Z,100.00
2018-09-22T23:46:05.875Z,100.00
2018-09-22T23:48:37.880Z,100.00
2018-09-22T23:51:09.928Z,100.00
2018-09-22T23:53:43.019Z,100.00
2018-09-22T23:56:15.056Z,100.00
2018-09-22T23:58:47.119Z,100.00
